Kaneohe, HI (96744)

6:59 AM HST on March 31, 2015 (GMT -1000)
Haiku Plantations | | Change Station
CLOSE
Current Station
Personal Weather Station
Location: Kaneohe, HI
Elevation: 249 ft
Nearby Weather Stations

Elev 249 ft 21.42 °N, 157.82 °W | Updated 10 seconds ago

Mostly Cloudy
Mostly Cloudy
69.8 °F
Feels Like 69.8 °F
N
0.0
Wind Variable Wind from SW
Gusts 0.0 mph

Today
High -- | Low -- °F
--% Chance of Precip.
Yesterday
High -- | Low -- °F
Precip. -- in
6:25 AM 6:45 PM
Waxing Gibbous, 87% visible
Pressure 30.00 in
Visibility -9999.0 miles
Clouds Mostly Cloudy 2500 ft
Dew Point 69 °F
Humidity 98%
Rainfall 0.40 in
Snow Depth Not available.
UV 0.0 out of 12
Pollen Not available.
Air Quality Not available.
Flu Activity Not available.
METAR PHNG 311657Z 12004KT BKN025 23/19 A3001 RMK AO2 SLP158 T02280194 $

More Conditions Fewer Conditions

Pressure 30.00 in
Visibility -9999.0 miles
Clouds Mostly Cloudy 2500 ft
Dew Point 69 °F
Humidity 98%
Rainfall 0.40 in
Snow Depth Not available.
UV 0.0 out of 12
Pollen Not available.
Air Quality Not available.
Flu Activity Not available.
METAR PHNG 311657Z 12004KT BKN025 23/19 A3001 RMK AO2 SLP158 T02280194 $

More Conditions Fewer Conditions

10-Day Weather Forecast

Almanac

Astronomy

Mar. 31, 2015 Rise Set
Actual Time
Civil Twilight
Nautical Twilight
Astronomical Twilight
Moon
Length of Visible Light
Length of Day
Tomorrow will be .
, % of the Moon is Illuminated

Today's Extremes

State Highs State Lows

Community

WunderPhotos

Upload Photos

1,809,787 photos uploaded!

WunderBlogs® & News

Nearby

Air Quality

  Air Quality AQ Index Pollutant
Not available.

Snow Depth

Station Depth Elevation

Earthquake Activity

City Distance Mag. Time & Date
Minimum magnitude displayed is 2.5.

Coastal Water Temperatures

Place Temperature

Stations

Nearby Weather Stations

Station Location Temp. Windchill Dew Point Humidity Wind Precip. Elev Updated Type
                   
Flood Watch / Flood Statement
Statement as of 6:46 AM HST on March 31, 2015

... The Flood Advisory has been cancelled for the island of Oahu in
Honolulu County...

Weather radar and rain gages showed that the heavy rains have ended.
Thus the Flood Advisory is cancelled.

Lat... Lon 2169 15804 2173 15798 2146 15772 2131 15766
      2131 15775 2135 15781